sensor_id;sensor_type;location;lat;lon;timestamp;temperature;humidity
34135;DHT22;20410;55.578;12.968;2022-11-15T00:01:48;10.90;60.60
34135;DHT22;20410;55.578;12.968;2022-11-15T00:04:13;10.90;69.00
34135;DHT22;20410;55.578;12.968;2022-11-15T00:06:39;10.90;64.20
34135;DHT22;20410;55.578;12.968;2022-11-15T00:09:05;10.90;69.20
34135;DHT22;20410;55.578;12.968;2022-11-15T00:11:30;10.90;72.70
34135;DHT22;20410;55.578;12.968;2022-11-15T00:13:57;11.00;71.80
34135;DHT22;20410;55.578;12.968;2022-11-15T00:16:23;11.00;68.50
34135;DHT22;20410;55.578;12.968;2022-11-15T00:18:48;11.00;62.40
34135;DHT22;20410;55.578;12.968;2022-11-15T00:21:14;10.90;58.90
34135;DHT22;20410;55.578;12.968;2022-11-15T00:23:40;10.90;66.80
34135;DHT22;20410;55.578;12.968;2022-11-15T00:26:06;10.90;57.80
34135;DHT22;20410;55.578;12.968;2022-11-15T00:28:32;11.00;70.00
34135;DHT22;20410;55.578;12.968;2022-11-15T00:31:02;10.90;65.30
34135;DHT22;20410;55.578;12.968;2022-11-15T00:33:28;11.00;65.80
34135;DHT22;20410;55.578;12.968;2022-11-15T00:36:00;10.90;64.70
34135;DHT22;20410;55.578;12.968;2022-11-15T00:38:25;10.90;73.50
34135;DHT22;20410;55.578;12.968;2022-11-15T00:40:55;11.00;70.40
34135;DHT22;20410;55.578;12.968;2022-11-15T00:43:20;11.00;67.10
34135;DHT22;20410;55.578;12.968;2022-11-15T00:45:46;11.00;69.10
34135;DHT22;20410;55.578;12.968;2022-11-15T00:48:11;11.00;63.80
34135;DHT22;20410;55.578;12.968;2022-11-15T00:50:37;11.00;56.90
34135;DHT22;20410;55.578;12.968;2022-11-15T00:53:02;10.90;60.50
34135;DHT22;20410;55.578;12.968;2022-11-15T00:55:28;10.90;59.70
34135;DHT22;20410;55.578;12.968;2022-11-15T00:57:53;10.90;71.50
34135;DHT22;20410;55.578;12.968;2022-11-15T01:00:19;10.90;66.30
34135;DHT22;20410;55.578;12.968;2022-11-15T01:02:44;11.00;67.90
34135;DHT22;20410;55.578;12.968;2022-11-15T01:05:10;10.90;60.80
34135;DHT22;20410;55.578;12.968;2022-11-15T01:07:36;10.90;62.70
34135;DHT22;20410;55.578;12.968;2022-11-15T01:10:01;10.90;70.80
34135;DHT22;20410;55.578;12.968;2022-11-15T01:12:27;10.80;62.00
34135;DHT22;20410;55.578;12.968;2022-11-15T01:14:52;10.90;70.50
34135;DHT22;20410;55.578;12.968;2022-11-15T01:17:18;10.90;65.30
34135;DHT22;20410;55.578;12.968;2022-11-15T01:19:43;10.90;62.80
34135;DHT22;20410;55.578;12.968;2022-11-15T01:22:09;10.90;63.50
34135;DHT22;20410;55.578;12.968;2022-11-15T01:24:35;10.80;63.30
34135;DHT22;20410;55.578;12.968;2022-11-15T01:27:00;10.80;63.90
34135;DHT22;20410;55.578;12.968;2022-11-15T01:29:26;10.80;66.60
34135;DHT22;20410;55.578;12.968;2022-11-15T01:31:53;10.80;62.90
34135;DHT22;20410;55.578;12.968;2022-11-15T01:34:18;10.80;61.80
34135;DHT22;20410;55.578;12.968;2022-11-15T01:36:44;10.80;52.40
34135;DHT22;20410;55.578;12.968;2022-11-15T01:39:10;10.80;57.90
34135;DHT22;20410;55.578;12.968;2022-11-15T01:41:35;10.80;68.60
34135;DHT22;20410;55.578;12.968;2022-11-15T01:47:21;10.80;53.20
34135;DHT22;20410;55.578;12.968;2022-11-15T01:50:05;10.80;63.30
34135;DHT22;20410;55.578;12.968;2022-11-15T01:52:33;10.70;68.20
34135;DHT22;20410;55.578;12.968;2022-11-15T01:55:12;10.60;83.80
34135;DHT22;20410;55.578;12.968;2022-11-15T01:57:41;10.70;82.30
34135;DHT22;20410;55.578;12.968;2022-11-15T02:00:07;10.70;78.70
34135;DHT22;20410;55.578;12.968;2022-11-15T02:02:34;10.70;78.80
34135;DHT22;20410;55.578;12.968;2022-11-15T02:05:01;10.80;78.60
34135;DHT22;20410;55.578;12.968;2022-11-15T02:07:28;10.80;72.80
34135;DHT22;20410;55.578;12.968;2022-11-15T02:09:54;10.80;71.70
34135;DHT22;20410;55.578;12.968;2022-11-15T02:12:21;10.90;69.50
34135;DHT22;20410;55.578;12.968;2022-11-15T02:14:51;10.90;70.10
34135;DHT22;20410;55.578;12.968;2022-11-15T02:28:33;10.80;76.00
34135;DHT22;20410;55.578;12.968;2022-11-15T02:33:32;10.80;77.90
34135;DHT22;20410;55.578;12.968;2022-11-15T02:36:01;10.70;66.70
34135;DHT22;20410;55.578;12.968;2022-11-15T02:38:56;10.70;77.70
34135;DHT22;20410;55.578;12.968;2022-11-15T02:41:24;10.80;70.50
34135;DHT22;20410;55.578;12.968;2022-11-15T02:46:40;10.70;72.00
34135;DHT22;20410;55.578;12.968;2022-11-15T02:49:28;10.70;69.20
34135;DHT22;20410;55.578;12.968;2022-11-15T02:51:55;10.70;75.60
34135;DHT22;20410;55.578;12.968;2022-11-15T02:54:29;10.70;62.80
34135;DHT22;20410;55.578;12.968;2022-11-15T02:56:58;10.70;65.60
34135;DHT22;20410;55.578;12.968;2022-11-15T03:04:57;10.60;59.00
34135;DHT22;20410;55.578;12.968;2022-11-15T03:07:55;10.60;64.20
34135;DHT22;20410;55.578;12.968;2022-11-15T03:10:32;10.50;75.00
34135;DHT22;20410;55.578;12.968;2022-11-15T03:16:11;10.40;75.10
34135;DHT22;20410;55.578;12.968;2022-11-15T03:18:54;10.50;85.90
34135;DHT22;20410;55.578;12.968;2022-11-15T03:21:21;10.50;84.70
34135;DHT22;20410;55.578;12.968;2022-11-15T03:23:48;10.50;72.90
34135;DHT22;20410;55.578;12.968;2022-11-15T03:26:17;10.30;93.40
34135;DHT22;20410;55.578;12.968;2022-11-15T03:28:57;10.30;97.40
34135;DHT22;20410;55.578;12.968;2022-11-15T03:31:28;10.30;93.70
34135;DHT22;20410;55.578;12.968;2022-11-15T03:34:22;10.30;98.70
34135;DHT22;20410;55.578;12.968;2022-11-15T03:36:50;10.30;96.80
34135;DHT22;20410;55.578;12.968;2022-11-15T03:39:17;10.30;95.30
34135;DHT22;20410;55.578;12.968;2022-11-15T03:41:44;10.30;99.90
34135;DHT22;20410;55.578;12.968;2022-11-15T03:47:12;10.20;99.90
34135;DHT22;20410;55.578;12.968;2022-11-15T03:49:42;10.10;99.90
34135;DHT22;20410;55.578;12.968;2022-11-15T03:52:10;10.10;99.90
34135;DHT22;20410;55.578;12.968;2022-11-15T03:54:36;10.00;99.90
34135;DHT22;20410;55.578;12.968;2022-11-15T03:57:02;10.10;99.90
34135;DHT22;20410;55.578;12.968;2022-11-15T03:59:28;10.20;99.90
34135;DHT22;20410;55.578;12.968;2022-11-15T04:01:53;10.20;99.90
34135;DHT22;20410;55.578;12.968;2022-11-15T04:04:19;10.20;99.90
34135;DHT22;20410;55.578;12.968;2022-11-15T04:06:44;10.30;99.90
34135;DHT22;20410;55.578;12.968;2022-11-15T04:09:10;10.40;99.90
34135;DHT22;20410;55.578;12.968;2022-11-15T04:11:35;10.40;99.90
34135;DHT22;20410;55.578;12.968;2022-11-15T04:14:01;10.30;99.90
34135;DHT22;20410;55.578;12.968;2022-11-15T04:16:27;10.30;99.90
34135;DHT22;20410;55.578;12.968;2022-11-15T04:18:52;10.30;99.90
34135;DHT22;20410;55.578;12.968;2022-11-15T04:21:36;10.40;99.90
34135;DHT22;20410;55.578;12.968;2022-11-15T04:24:20;10.30;99.90
34135;DHT22;20410;55.578;12.968;2022-11-15T04:26:46;10.40;99.90
34135;DHT22;20410;55.578;12.968;2022-11-15T04:29:11;10.30;99.70
34135;DHT22;20410;55.578;12.968;2022-11-15T04:32:04;10.30;99.90
34135;DHT22;20410;55.578;12.968;2022-11-15T04:34:31;10.30;99.90
34135;DHT22;20410;55.578;12.968;2022-11-15T04:36:56;10.30;99.90
34135;DHT22;20410;55.578;12.968;2022-11-15T04:39:37;10.30;99.90
34135;DHT22;20410;55.578;12.968;2022-11-15T04:42:03;10.30;99.90
34135;DHT22;20410;55.578;12.968;2022-11-15T04:44:29;10.40;99.90
34135;DHT22;20410;55.578;12.968;2022-11-15T04:46:54;10.30;97.50
34135;DHT22;20410;55.578;12.968;2022-11-15T04:49:20;10.30;99.90
34135;DHT22;20410;55.578;12.968;2022-11-15T04:51:46;10.30;99.90
34135;DHT22;20410;55.578;12.968;2022-11-15T04:54:11;10.30;99.90
34135;DHT22;20410;55.578;12.968;2022-11-15T04:56:37;10.40;99.90
34135;DHT22;20410;55.578;12.968;2022-11-15T04:59:02;10.50;99.60
34135;DHT22;20410;55.578;12.968;2022-11-15T05:01:28;10.50;95.10
34135;DHT22;20410;55.578;12.968;2022-11-15T05:03:54;10.50;95.70
34135;DHT22;20410;55.578;12.968;2022-11-15T05:06:38;10.60;93.10
34135;DHT22;20410;55.578;12.968;2022-11-15T05:09:03;10.60;92.20
34135;DHT22;20410;55.578;12.968;2022-11-15T05:11:29;10.60;90.30
34135;DHT22;20410;55.578;12.968;2022-11-15T05:13:55;10.60;91.80
34135;DHT22;20410;55.578;12.968;2022-11-15T05:16:21;10.60;94.60
34135;DHT22;20410;55.578;12.968;2022-11-15T05:18:46;10.60;89.10
34135;DHT22;20410;55.578;12.968;2022-11-15T05:21:14;10.60;89.30
34135;DHT22;20410;55.578;12.968;2022-11-15T05:23:40;10.60;88.20
34135;DHT22;20410;55.578;12.968;2022-11-15T05:26:07;10.70;91.90
34135;DHT22;20410;55.578;12.968;2022-11-15T05:28:33;10.60;86.20
34135;DHT22;20410;55.578;12.968;2022-11-15T05:31:04;10.60;89.20
34135;DHT22;20410;55.578;12.968;2022-11-15T05:33:30;10.70;92.10
34135;DHT22;20410;55.578;12.968;2022-11-15T05:36:26;10.60;94.60
34135;DHT22;20410;55.578;12.968;2022-11-15T05:38:53;10.70;91.30
34135;DHT22;20410;55.578;12.968;2022-11-15T05:41:22;10.60;92.10
34135;DHT22;20410;55.578;12.968;2022-11-15T05:43:51;10.60;97.70
34135;DHT22;20410;55.578;12.968;2022-11-15T05:46:17;10.60;98.20
34135;DHT22;20410;55.578;12.968;2022-11-15T05:48:45;10.50;98.90
34135;DHT22;20410;55.578;12.968;2022-11-15T05:51:12;10.60;99.90
34135;DHT22;20410;55.578;12.968;2022-11-15T05:53:39;10.60;99.00
34135;DHT22;20410;55.578;12.968;2022-11-15T05:56:05;10.70;95.90
34135;DHT22;20410;55.578;12.968;2022-11-15T05:58:35;10.70;96.20
34135;DHT22;20410;55.578;12.968;2022-11-15T06:01:02;10.70;96.10
34135;DHT22;20410;55.578;12.968;2022-11-15T06:03:28;10.70;93.80
34135;DHT22;20410;55.578;12.968;2022-11-15T06:05:53;10.80;95.80
34135;DHT22;20410;55.578;12.968;2022-11-15T06:08:19;10.80;90.40
34135;DHT22;20410;55.578;12.968;2022-11-15T06:10:45;10.80;91.00
34135;DHT22;20410;55.578;12.968;2022-11-15T06:13:10;10.80;91.50
34135;DHT22;20410;55.578;12.968;2022-11-15T06:15:36;10.80;90.70
34135;DHT22;20410;55.578;12.968;2022-11-15T06:18:01;10.80;92.20
34135;DHT22;20410;55.578;12.968;2022-11-15T06:20:28;10.90;91.60
34135;DHT22;20410;55.578;12.968;2022-11-15T06:23:02;10.90;88.10
34135;DHT22;20410;55.578;12.968;2022-11-15T06:25:28;10.90;89.30
34135;DHT22;20410;55.578;12.968;2022-11-15T06:27:56;10.90;90.40
34135;DHT22;20410;55.578;12.968;2022-11-15T06:30:22;10.90;85.30
34135;DHT22;20410;55.578;12.968;2022-11-15T06:32:48;10.90;92.90
34135;DHT22;20410;55.578;12.968;2022-11-15T06:35:13;10.80;97.10
34135;DHT22;20410;55.578;12.968;2022-11-15T06:37:39;10.80;92.50
34135;DHT22;20410;55.578;12.968;2022-11-15T06:40:06;10.90;93.10
34135;DHT22;20410;55.578;12.968;2022-11-15T06:42:32;10.90;89.60
34135;DHT22;20410;55.578;12.968;2022-11-15T06:44:57;10.90;89.90
34135;DHT22;20410;55.578;12.968;2022-11-15T06:47:23;10.90;93.20
34135;DHT22;20410;55.578;12.968;2022-11-15T06:49:48;10.90;93.40
34135;DHT22;20410;55.578;12.968;2022-11-15T06:52:14;11.00;93.20
34135;DHT22;20410;55.578;12.968;2022-11-15T06:54:39;11.00;87.00
34135;DHT22;20410;55.578;12.968;2022-11-15T06:57:05;11.00;85.60
34135;DHT22;20410;55.578;12.968;2022-11-15T06:59:31;11.10;89.50
34135;DHT22;20410;55.578;12.968;2022-11-15T07:01:56;11.10;88.70
34135;DHT22;20410;55.578;12.968;2022-11-15T07:04:22;11.10;86.30
34135;DHT22;20410;55.578;12.968;2022-11-15T07:06:47;11.10;85.10
34135;DHT22;20410;55.578;12.968;2022-11-15T07:09:14;11.10;83.10
34135;DHT22;20410;55.578;12.968;2022-11-15T07:11:40;11.00;93.70
34135;DHT22;20410;55.578;12.968;2022-11-15T07:14:06;11.10;90.50
34135;DHT22;20410;55.578;12.968;2022-11-15T07:16:31;11.00;90.50
34135;DHT22;20410;55.578;12.968;2022-11-15T07:18:57;11.00;94.10
34135;DHT22;20410;55.578;12.968;2022-11-15T07:21:22;11.00;95.00
34135;DHT22;20410;55.578;12.968;2022-11-15T07:23:48;11.10;95.00
34135;DHT22;20410;55.578;12.968;2022-11-15T07:26:14;11.10;91.40
34135;DHT22;20410;55.578;12.968;2022-11-15T07:28:39;11.10;92.80
34135;DHT22;20410;55.578;12.968;2022-11-15T07:31:07;11.10;91.30
34135;DHT22;20410;55.578;12.968;2022-11-15T07:33:32;11.10;90.40
34135;DHT22;20410;55.578;12.968;2022-11-15T07:35:59;11.00;92.10
34135;DHT22;20410;55.578;12.968;2022-11-15T07:38:27;11.00;94.80
34135;DHT22;20410;55.578;12.968;2022-11-15T07:41:00;11.00;94.30
34135;DHT22;20410;55.578;12.968;2022-11-15T07:43:26;11.00;95.10
34135;DHT22;20410;55.578;12.968;2022-11-15T07:45:55;11.00;98.20
34135;DHT22;20410;55.578;12.968;2022-11-15T07:48:21;10.90;97.60
34135;DHT22;20410;55.578;12.968;2022-11-15T07:50:46;10.90;97.00
34135;DHT22;20410;55.578;12.968;2022-11-15T07:53:12;10.90;98.70
34135;DHT22;20410;55.578;12.968;2022-11-15T07:55:40;11.00;96.00
34135;DHT22;20410;55.578;12.968;2022-11-15T07:58:07;11.00;92.70
34135;DHT22;20410;55.578;12.968;2022-11-15T08:00:34;11.00;93.50
34135;DHT22;20410;55.578;12.968;2022-11-15T08:03:09;11.00;91.90
34135;DHT22;20410;55.578;12.968;2022-11-15T08:05:37;10.90;91.90
34135;DHT22;20410;55.578;12.968;2022-11-15T08:08:03;10.90;91.50
34135;DHT22;20410;55.578;12.968;2022-11-15T08:10:29;10.90;97.30
34135;DHT22;20410;55.578;12.968;2022-11-15T08:13:06;10.90;96.10
34135;DHT22;20410;55.578;12.968;2022-11-15T08:15:32;10.90;96.70
34135;DHT22;20410;55.578;12.968;2022-11-15T08:18:03;10.90;97.60
34135;DHT22;20410;55.578;12.968;2022-11-15T08:20:30;10.90;93.90
34135;DHT22;20410;55.578;12.968;2022-11-15T08:23:00;11.00;92.70
34135;DHT22;20410;55.578;12.968;2022-11-15T08:25:27;11.00;83.70
34135;DHT22;20410;55.578;12.968;2022-11-15T08:27:54;10.90;83.20
34135;DHT22;20410;55.578;12.968;2022-11-15T08:30:20;10.90;89.80
34135;DHT22;20410;55.578;12.968;2022-11-15T08:32:46;10.90;92.10
34135;DHT22;20410;55.578;12.968;2022-11-15T08:35:12;10.90;89.10
34135;DHT22;20410;55.578;12.968;2022-11-15T08:37:38;10.90;88.20
34135;DHT22;20410;55.578;12.968;2022-11-15T08:40:04;11.00;82.40
34135;DHT22;20410;55.578;12.968;2022-11-15T08:42:30;11.00;82.00
34135;DHT22;20410;55.578;12.968;2022-11-15T08:44:56;11.00;76.30
34135;DHT22;20410;55.578;12.968;2022-11-15T08:47:21;11.00;81.20
34135;DHT22;20410;55.578;12.968;2022-11-15T08:49:47;11.00;77.80
34135;DHT22;20410;55.578;12.968;2022-11-15T08:52:14;11.00;75.90
34135;DHT22;20410;55.578;12.968;2022-11-15T08:54:40;11.00;75.50
34135;DHT22;20410;55.578;12.968;2022-11-15T08:57:06;11.00;79.00
34135;DHT22;20410;55.578;12.968;2022-11-15T08:59:32;11.00;83.10
34135;DHT22;20410;55.578;12.968;2022-11-15T09:01:57;10.90;84.90
34135;DHT22;20410;55.578;12.968;2022-11-15T09:04:23;10.90;87.20
34135;DHT22;20410;55.578;12.968;2022-11-15T09:06:48;10.90;91.10
34135;DHT22;20410;55.578;12.968;2022-11-15T09:09:14;10.90;91.20
34135;DHT22;20410;55.578;12.968;2022-11-15T09:11:39;11.00;90.00
34135;DHT22;20410;55.578;12.968;2022-11-15T09:14:05;11.00;90.30
34135;DHT22;20410;55.578;12.968;2022-11-15T09:16:31;11.00;89.10
34135;DHT22;20410;55.578;12.968;2022-11-15T09:18:57;11.00;85.30
34135;DHT22;20410;55.578;12.968;2022-11-15T09:21:22;11.00;91.50
34135;DHT22;20410;55.578;12.968;2022-11-15T09:23:51;11.00;88.50
34135;DHT22;20410;55.578;12.968;2022-11-15T09:26:17;11.10;91.10
34135;DHT22;20410;55.578;12.968;2022-11-15T09:28:43;11.10;83.80
34135;DHT22;20410;55.578;12.968;2022-11-15T09:31:09;11.20;83.40
34135;DHT22;20410;55.578;12.968;2022-11-15T09:33:35;11.20;75.70
34135;DHT22;20410;55.578;12.968;2022-11-15T09:36:04;11.20;80.10
34135;DHT22;20410;55.578;12.968;2022-11-15T09:38:31;11.10;80.20
34135;DHT22;20410;55.578;12.968;2022-11-15T09:43:53;11.20;87.40
34135;DHT22;20410;55.578;12.968;2022-11-15T09:47:02;11.20;83.80
34135;DHT22;20410;55.578;12.968;2022-11-15T09:49:31;11.30;77.90
34135;DHT22;20410;55.578;12.968;2022-11-15T09:51:57;11.30;75.90
34135;DHT22;20410;55.578;12.968;2022-11-15T09:56:53;11.30;79.80
34135;DHT22;20410;55.578;12.968;2022-11-15T10:00:21;11.30;77.90
34135;DHT22;20410;55.578;12.968;2022-11-15T10:05:11;11.30;74.60
34135;DHT22;20410;55.578;12.968;2022-11-15T10:08:05;11.30;70.00
34135;DHT22;20410;55.578;12.968;2022-11-15T10:10:58;11.40;66.80
34135;DHT22;20410;55.578;12.968;2022-11-15T10:13:28;11.40;66.40
34135;DHT22;20410;55.578;12.968;2022-11-15T10:16:25;11.40;69.40
34135;DHT22;20410;55.578;12.968;2022-11-15T10:21:58;11.50;56.50
34135;DHT22;20410;55.578;12.968;2022-11-15T10:24:28;11.50;58.80
34135;DHT22;20410;55.578;12.968;2022-11-15T10:26:56;11.50;58.40
34135;DHT22;20410;55.578;12.968;2022-11-15T10:29:23;11.50;57.80
34135;DHT22;20410;55.578;12.968;2022-11-15T10:31:49;11.50;57.20
34135;DHT22;20410;55.578;12.968;2022-11-15T10:34:21;11.50;56.60
34135;DHT22;20410;55.578;12.968;2022-11-15T10:36:55;11.50;62.70
34135;DHT22;20410;55.578;12.968;2022-11-15T10:39:21;11.50;59.80
34135;DHT22;20410;55.578;12.968;2022-11-15T10:41:47;11.40;68.20
34135;DHT22;20410;55.578;12.968;2022-11-15T10:44:31;11.40;69.70
34135;DHT22;20410;55.578;12.968;2022-11-15T10:49:30;11.50;69.00
34135;DHT22;20410;55.578;12.968;2022-11-15T10:52:02;11.50;72.80
34135;DHT22;20410;55.578;12.968;2022-11-15T10:55:33;11.50;69.70
34135;DHT22;20410;55.578;12.968;2022-11-15T10:57:36;11.40;78.40
34135;DHT22;20410;55.578;12.968;2022-11-15T11:02:40;11.50;72.70
34135;DHT22;20410;55.578;12.968;2022-11-15T11:05:30;11.60;69.40
34135;DHT22;20410;55.578;12.968;2022-11-15T11:10:35;11.50;77.70
34135;DHT22;20410;55.578;12.968;2022-11-15T11:13:14;11.50;81.70
34135;DHT22;20410;55.578;12.968;2022-11-15T11:15:44;11.50;83.30
34135;DHT22;20410;55.578;12.968;2022-11-15T11:18:22;11.50;78.20
34135;DHT22;20410;55.578;12.968;2022-11-15T11:20:54;11.50;77.10
34135;DHT22;20410;55.578;12.968;2022-11-15T11:26:42;11.40;63.10
34135;DHT22;20410;55.578;12.968;2022-11-15T11:29:41;11.30;67.40
34135;DHT22;20410;55.578;12.968;2022-11-15T11:35:13;11.20;46.90
34135;DHT22;20410;55.578;12.968;2022-11-15T11:37:53;11.30;63.00
34135;DHT22;20410;55.578;12.968;2022-11-15T11:48:07;11.30;47.70
34135;DHT22;20410;55.578;12.968;2022-11-15T11:50:38;11.30;40.20
34135;DHT22;20410;55.578;12.968;2022-11-15T11:53:12;11.20;39.70
34135;DHT22;20410;55.578;12.968;2022-11-15T11:55:43;11.20;44.10
34135;DHT22;20410;55.578;12.968;2022-11-15T11:58:27;11.30;37.20
34135;DHT22;20410;55.578;12.968;2022-11-15T12:01:16;11.30;29.80
34135;DHT22;20410;55.578;12.968;2022-11-15T12:03:53;11.30;31.60
34135;DHT22;20410;55.578;12.968;2022-11-15T12:06:35;11.30;23.50
34135;DHT22;20410;55.578;12.968;2022-11-15T12:12:15;11.30;18.70
34135;DHT22;20410;55.578;12.968;2022-11-15T12:17:34;11.30;10.90
34135;DHT22;20410;55.578;12.968;2022-11-15T12:20:03;11.30;13.00
34135;DHT22;20410;55.578;12.968;2022-11-15T12:30:46;11.40;17.60
34135;DHT22;20410;55.578;12.968;2022-11-15T12:33:37;11.30;4.90
34135;DHT22;20410;55.578;12.968;2022-11-15T12:41:22;11.30;8.80
34135;DHT22;20410;55.578;12.968;2022-11-15T12:43:49;11.30;12.80
34135;DHT22;20410;55.578;12.968;2022-11-15T12:49:07;11.30;17.70
34135;DHT22;20410;55.578;12.968;2022-11-15T13:02:35;11.30;23.60
34135;DHT22;20410;55.578;12.968;2022-11-15T13:17:47;11.40;29.70
34135;DHT22;20410;55.578;12.968;2022-11-15T13:22:51;11.40;16.30
34135;DHT22;20410;55.578;12.968;2022-11-15T13:28:31;11.20;31.20
34135;DHT22;20410;55.578;12.968;2022-11-15T13:31:37;11.00;41.30
34135;DHT22;20410;55.578;12.968;2022-11-15T13:36:53;11.10;50.80
34135;DHT22;20410;55.578;12.968;2022-11-15T13:39:27;11.10;50.80
34135;DHT22;20410;55.578;12.968;2022-11-15T13:41:53;11.10;42.30
34135;DHT22;20410;55.578;12.968;2022-11-15T13:44:20;11.10;42.30
34135;DHT22;20410;55.578;12.968;2022-11-15T13:46:46;11.10;48.70
34135;DHT22;20410;55.578;12.968;2022-11-15T13:49:12;11.00;51.80
34135;DHT22;20410;55.578;12.968;2022-11-15T13:56:42;10.80;65.80
34135;DHT22;20410;55.578;12.968;2022-11-15T13:59:35;10.70;60.90
34135;DHT22;20410;55.578;12.968;2022-11-15T14:02:16;10.80;64.80
34135;DHT22;20410;55.578;12.968;2022-11-15T14:04:55;10.90;49.00
34135;DHT22;20410;55.578;12.968;2022-11-15T14:07:25;10.90;35.40
34135;DHT22;20410;55.578;12.968;2022-11-15T14:09:51;10.80;39.20
34135;DHT22;20410;55.578;12.968;2022-11-15T14:12:50;10.80;42.10
34135;DHT22;20410;55.578;12.968;2022-11-15T14:15:31;10.70;34.20
34135;DHT22;20410;55.578;12.968;2022-11-15T14:17:57;10.80;30.70
34135;DHT22;20410;55.578;12.968;2022-11-15T14:23:02;10.70;26.70
34135;DHT22;20410;55.578;12.968;2022-11-15T14:25:29;10.80;24.00
34135;DHT22;20410;55.578;12.968;2022-11-15T14:28:27;10.70;20.80
34135;DHT22;20410;55.578;12.968;2022-11-15T14:30:55;10.80;22.60
34135;DHT22;20410;55.578;12.968;2022-11-15T14:33:37;10.90;18.30
34135;DHT22;20410;55.578;12.968;2022-11-15T14:36:23;10.90;16.50
34135;DHT22;20410;55.578;12.968;2022-11-15T14:38:48;10.90;16.30
34135;DHT22;20410;55.578;12.968;2022-11-15T14:41:25;10.90;15.30
34135;DHT22;20410;55.578;12.968;2022-11-15T14:43:52;10.90;17.70
34135;DHT22;20410;55.578;12.968;2022-11-15T14:46:18;10.90;12.60
34135;DHT22;20410;55.578;12.968;2022-11-15T14:48:44;10.90;18.30
34135;DHT22;20410;55.578;12.968;2022-11-15T14:51:14;10.90;12.40
34135;DHT22;20410;55.578;12.968;2022-11-15T14:53:41;10.90;13.20
34135;DHT22;20410;55.578;12.968;2022-11-15T14:56:07;10.90;14.60
34135;DHT22;20410;55.578;12.968;2022-11-15T14:58:33;10.90;18.70
34135;DHT22;20410;55.578;12.968;2022-11-15T15:00:58;11.00;13.00
34135;DHT22;20410;55.578;12.968;2022-11-15T15:03:24;11.00;12.80
34135;DHT22;20410;55.578;12.968;2022-11-15T15:05:49;11.00;8.50
34135;DHT22;20410;55.578;12.968;2022-11-15T15:08:15;10.90;9.90
34135;DHT22;20410;55.578;12.968;2022-11-15T15:10:43;10.90;6.60
34135;DHT22;20410;55.578;12.968;2022-11-15T15:13:21;10.80;9.90
34135;DHT22;20410;55.578;12.968;2022-11-15T15:15:47;10.90;10.30
34135;DHT22;20410;55.578;12.968;2022-11-15T15:18:13;10.90;12.00
34135;DHT22;20410;55.578;12.968;2022-11-15T15:20:40;10.90;7.30
34135;DHT22;20410;55.578;12.968;2022-11-15T15:23:19;10.90;6.00
34135;DHT22;20410;55.578;12.968;2022-11-15T15:25:46;10.90;6.00
34135;DHT22;20410;55.578;12.968;2022-11-15T15:28:13;10.90;11.40
34135;DHT22;20410;55.578;12.968;2022-11-15T15:30:39;10.90;19.30
34135;DHT22;20410;55.578;12.968;2022-11-15T15:33:04;10.90;14.80
34135;DHT22;20410;55.578;12.968;2022-11-15T15:35:32;11.00;10.60
34135;DHT22;20410;55.578;12.968;2022-11-15T15:37:58;11.00;11.60
34135;DHT22;20410;55.578;12.968;2022-11-15T15:40:25;11.00;10.40
34135;DHT22;20410;55.578;12.968;2022-11-15T15:42:52;11.00;15.10
34135;DHT22;20410;55.578;12.968;2022-11-15T15:45:18;11.00;7.20
34135;DHT22;20410;55.578;12.968;2022-11-15T15:47:44;10.90;7.50
34135;DHT22;20410;55.578;12.968;2022-11-15T15:50:49;10.90;16.50
34135;DHT22;20410;55.578;12.968;2022-11-15T15:53:14;10.90;17.60
34135;DHT22;20410;55.578;12.968;2022-11-15T15:55:40;10.90;16.70
34135;DHT22;20410;55.578;12.968;2022-11-15T15:58:06;10.90;15.10
34135;DHT22;20410;55.578;12.968;2022-11-15T16:00:33;10.90;11.20
34135;DHT22;20410;55.578;12.968;2022-11-15T16:02:59;10.90;16.60
34135;DHT22;20410;55.578;12.968;2022-11-15T16:05:24;11.00;14.50
34135;DHT22;20410;55.578;12.968;2022-11-15T16:07:50;11.00;7.80
34135;DHT22;20410;55.578;12.968;2022-11-15T16:12:41;10.90;10.30
34135;DHT22;20410;55.578;12.968;2022-11-15T16:15:07;11.00;8.90
34135;DHT22;20410;55.578;12.968;2022-11-15T16:17:37;10.90;8.10
34135;DHT22;20410;55.578;12.968;2022-11-15T16:20:03;11.00;11.50
34135;DHT22;20410;55.578;12.968;2022-11-15T16:22:29;11.00;11.80
34135;DHT22;20410;55.578;12.968;2022-11-15T16:24:55;11.00;12.40
34135;DHT22;20410;55.578;12.968;2022-11-15T16:27:21;11.00;16.30
34135;DHT22;20410;55.578;12.968;2022-11-15T16:29:47;10.90;13.90
34135;DHT22;20410;55.578;12.968;2022-11-15T16:32:14;10.90;12.20
34135;DHT22;20410;55.578;12.968;2022-11-15T16:34:40;10.90;16.30
34135;DHT22;20410;55.578;12.968;2022-11-15T16:37:08;10.90;12.20
34135;DHT22;20410;55.578;12.968;2022-11-15T16:39:33;10.90;16.90
34135;DHT22;20410;55.578;12.968;2022-11-15T16:41:59;10.90;6.10
34135;DHT22;20410;55.578;12.968;2022-11-15T16:44:25;10.90;8.20
34135;DHT22;20410;55.578;12.968;2022-11-15T16:46:51;10.90;7.20
34135;DHT22;20410;55.578;12.968;2022-11-15T16:49:19;10.90;8.40
34135;DHT22;20410;55.578;12.968;2022-11-15T16:51:45;10.90;2.90
34135;DHT22;20410;55.578;12.968;2022-11-15T16:54:11;10.90;8.00
34135;DHT22;20410;55.578;12.968;2022-11-15T16:56:37;10.90;7.40
34135;DHT22;20410;55.578;12.968;2022-11-15T16:59:03;10.90;5.90
34135;DHT22;20410;55.578;12.968;2022-11-15T17:01:34;10.90;10.80
34135;DHT22;20410;55.578;12.968;2022-11-15T17:04:00;10.90;11.10
34135;DHT22;20410;55.578;12.968;2022-11-15T17:06:42;10.90;12.80
34135;DHT22;20410;55.578;12.968;2022-11-15T17:09:16;10.90;15.10
34135;DHT22;20410;55.578;12.968;2022-11-15T17:11:42;10.90;12.10
34135;DHT22;20410;55.578;12.968;2022-11-15T17:14:09;10.90;10.30
34135;DHT22;20410;55.578;12.968;2022-11-15T17:16:34;10.90;9.70
34135;DHT22;20410;55.578;12.968;2022-11-15T17:19:03;10.90;12.60
34135;DHT22;20410;55.578;12.968;2022-11-15T17:21:29;11.00;16.80
34135;DHT22;20410;55.578;12.968;2022-11-15T17:23:54;11.00;16.10
34135;DHT22;20410;55.578;12.968;2022-11-15T17:26:21;11.00;12.40
34135;DHT22;20410;55.578;12.968;2022-11-15T17:28:46;11.00;19.50
34135;DHT22;20410;55.578;12.968;2022-11-15T17:31:13;10.90;19.30
34135;DHT22;20410;55.578;12.968;2022-11-15T17:33:39;11.00;15.40
34135;DHT22;20410;55.578;12.968;2022-11-15T17:36:07;11.00;17.00
34135;DHT22;20410;55.578;12.968;2022-11-15T17:38:34;11.00;14.00
34135;DHT22;20410;55.578;12.968;2022-11-15T17:41:12;11.00;18.40